Time,TemperatureF,DewpointF,PressureIn,WindDirection,WindDirectionDegrees,WindSpeedMPH,WindSpeedGustMPH,Humidity,HourlyPrecipIn,Conditions,Clouds,dailyrainin,SoftwareType,DateUTC
2013-02-11 00:00:00,28.4,27.7,29.41,West,271,7.0,23.0,97,0.00,,SKC,0.04,VWS V14.01,2013-02-11 06:00:00,
2013-02-11 00:05:00,28.4,27.7,29.42,WNW,288,17.0,21.0,97,0.00,,SKC,0.00,VWS V14.01,2013-02-11 06:05:00,
2013-02-11 00:10:00,28.3,27.6,29.42,NW,326,15.0,24.0,97,0.00,,SKC,0.00,VWS V14.01,2013-02-11 06:10:00,
2013-02-11 00:15:00,28.3,27.6,29.42,WNW,297,10.0,24.0,97,0.00,,SKC,0.00,VWS V14.01,2013-02-11 06:15:00,
2013-02-11 00:20:00,28.2,27.5,29.42,West,276,23.0,24.0,97,0.00,,SKC,0.00,VWS V14.01,2013-02-11 06:20:00,
2013-02-11 00:25:00,28.1,27.4,29.43,West,276,19.0,24.0,97,0.00,,SKC,0.00,VWS V14.01,2013-02-11 06:25:00,
2013-02-11 00:30:00,28.1,27.4,29.43,West,278,17.0,26.0,97,0.00,,SKC,0.00,VWS V14.01,2013-02-11 06:30:00,
2013-02-11 00:35:00,28.1,27.4,29.44,WNW,295,6.0,24.0,97,0.00,,SKC,0.00,VWS V14.01,2013-02-11 06:35:00,
2013-02-11 00:40:00,28.1,27.4,29.44,NW,314,18.0,24.0,97,0.00,,SKC,0.00,VWS V14.01,2013-02-11 06:40:00,
2013-02-11 00:45:00,28.0,27.3,29.44,NW,304,15.0,24.0,97,0.00,,SKC,0.00,VWS V14.01,2013-02-11 06:45:00,
2013-02-11 00:50:00,28.1,27.4,29.44,West,277,12.0,24.0,97,0.00,,SKC,0.00,VWS V14.01,2013-02-11 06:50:00,
2013-02-11 00:55:00,28.1,27.4,29.45,WNW,285,13.0,24.0,97,0.00,,SKC,0.00,VWS V14.01,2013-02-11 06:55:00,
2013-02-11 01:00:00,28.0,27.0,29.45,WSW,253,14.0,24.0,96,0.00,,SKC,0.00,VWS V14.01,2013-02-11 07:00:00,
2013-02-11 01:05:00,28.0,27.0,29.45,WNW,288,22.0,22.0,96,0.00,,SKC,0.00,VWS V14.01,2013-02-11 07:05:00,
2013-02-11 01:10:00,28.0,27.0,29.46,WNW,287,11.0,22.0,96,0.00,,SKC,0.00,VWS V14.01,2013-02-11 07:10:00,
2013-02-11 01:15:00,28.0,27.0,29.47,WNW,282,7.0,22.0,96,0.00,,SKC,0.00,VWS V14.01,2013-02-11 07:15:00,
2013-02-11 01:20:00,27.9,26.9,29.47,West,271,6.0,26.0,96,0.00,,SKC,0.00,VWS V14.01,2013-02-11 07:20:00,
2013-02-11 01:25:00,27.9,26.9,29.47,WNW,295,12.0,26.0,96,0.00,,SKC,0.00,VWS V14.01,2013-02-11 07:25:00,
2013-02-11 01:30:00,27.9,26.9,29.47,West,271,12.0,26.0,96,0.00,,SKC,0.00,VWS V14.01,2013-02-11 07:30:00,
2013-02-11 01:35:00,28.0,27.0,29.47,WNW,282,10.0,26.0,96,0.00,,SKC,0.00,VWS V14.01,2013-02-11 07:35:00,
2013-02-11 01:40:00,28.0,27.0,29.48,WNW,292,18.0,26.0,96,0.00,,SKC,0.00,VWS V14.01,2013-02-11 07:40:00,
2013-02-11 01:45:00,27.9,26.9,29.48,WNW,297,8.0,27.0,96,0.00,,SKC,0.00,VWS V14.01,2013-02-11 07:45:00,
2013-02-11 01:50:00,27.9,26.9,29.48,WNW,297,9.0,27.0,96,0.00,,SKC,0.00,VWS V14.01,2013-02-11 07:50:00,
2013-02-11 01:55:00,27.8,26.6,29.49,WNW,293,17.0,27.0,95,0.00,,SKC,0.00,VWS V14.01,2013-02-11 07:55:00,
2013-02-11 02:00:00,27.8,26.6,29.49,West,270,9.0,27.0,95,0.00,,SKC,0.00,VWS V14.01,2013-02-11 08:00:00,
2013-02-11 02:05:00,27.8,26.6,29.50,SW,235,18.0,24.0,95,0.00,,SKC,0.00,VWS V14.01,2013-02-11 08:05:00,
2013-02-11 02:10:00,27.9,26.7,29.50,WNW,283,12.0,24.0,95,0.00,,SKC,0.00,VWS V14.01,2013-02-11 08:10:00,
2013-02-11 02:15:00,27.9,26.7,29.50,WNW,288,10.0,26.0,95,0.00,,SKC,0.00,VWS V14.01,2013-02-11 08:15:00,
2013-02-11 02:20:00,27.9,26.7,29.51,West,260,14.0,26.0,95,0.00,,SKC,0.00,VWS V14.01,2013-02-11 08:20:00,
2013-02-11 02:25:00,27.8,26.6,29.51,NNW,328,11.0,26.0,95,0.00,,SKC,0.00,VWS V14.01,2013-02-11 08:25:00,
2013-02-11 02:30:00,27.8,26.6,29.51,West,263,7.0,26.0,95,0.00,,SKC,0.00,VWS V14.01,2013-02-11 08:30:00,
2013-02-11 02:35:00,27.8,26.6,29.52,West,272,21.0,22.0,95,0.00,,SKC,0.00,VWS V14.01,2013-02-11 08:35:00,
2013-02-11 02:40:00,27.7,26.2,29.52,WNW,293,9.0,26.0,94,0.00,,SKC,0.00,VWS V14.01,2013-02-11 08:40:00,
2013-02-11 02:45:00,27.7,26.2,29.52,WNW,296,21.0,26.0,94,0.00,,SKC,0.00,VWS V14.01,2013-02-11 08:45:00,
2013-02-11 02:50:00,27.7,26.2,29.52,WNW,298,7.0,26.0,94,0.00,,SKC,0.00,VWS V14.01,2013-02-11 08:50:00,
2013-02-11 02:55:00,27.6,26.1,29.53,WNW,290,10.0,26.0,94,0.00,,SKC,0.00,VWS V14.01,2013-02-11 08:55:00,
2013-02-11 03:00:00,27.6,26.1,29.53,WNW,285,13.0,30.0,94,0.00,,SKC,0.00,VWS V14.01,2013-02-11 09:00:00,
2013-02-11 03:05:00,27.5,26.0,29.53,NW,317,16.0,21.0,94,0.00,,SKC,0.00,VWS V14.01,2013-02-11 09:05:00,
2013-02-11 03:10:00,27.5,26.0,29.54,NW,311,10.0,21.0,94,0.00,,SKC,0.00,VWS V14.01,2013-02-11 09:10:00,
2013-02-11 03:15:00,27.4,25.9,29.54,WNW,302,7.0,21.0,94,0.00,,SKC,0.00,VWS V14.01,2013-02-11 09:15:00,
2013-02-11 03:20:00,27.4,25.9,29.55,WNW,296,12.0,21.0,94,0.00,,SKC,0.00,VWS V14.01,2013-02-11 09:20:00,
2013-02-11 03:25:00,27.4,25.9,29.55,WNW,301,20.0,21.0,94,0.00,,SKC,0.00,VWS V14.01,2013-02-11 09:25:00,
2013-02-11 03:30:00,27.3,25.8,29.55,NW,309,6.0,31.0,94,0.00,,SKC,0.00,VWS V14.01,2013-02-11 09:30:00,
2013-02-11 03:35:00,27.3,25.8,29.56,NNW,336,7.0,18.0,94,0.00,,SKC,0.00,VWS V14.01,2013-02-11 09:35:00,
2013-02-11 03:40:00,27.3,25.8,29.56,WNW,300,18.0,23.0,94,0.00,,SKC,0.00,VWS V14.01,2013-02-11 09:40:00,
2013-02-11 03:45:00,27.2,25.5,29.56,NW,304,11.0,23.0,93,0.00,,SKC,0.00,VWS V14.01,2013-02-11 09:45:00,
2013-02-11 03:50:00,27.1,25.6,29.57,WNW,299,8.0,24.0,94,0.00,,SKC,0.00,VWS V14.01,2013-02-11 09:50:00,
2013-02-11 03:55:00,27.1,25.6,29.57,NW,307,16.0,24.0,94,0.00,,SKC,0.00,VWS V14.01,2013-02-11 09:55:00,
2013-02-11 04:00:00,27.0,25.5,29.57,NW,315,18.0,27.0,94,0.00,,SKC,0.00,VWS V14.01,2013-02-11 10:00:00,
2013-02-11 04:05:00,27.0,25.5,29.58,NW,307,8.0,25.0,94,0.00,,SKC,0.00,VWS V14.01,2013-02-11 10:05:00,
2013-02-11 04:10:00,26.9,25.4,29.58,WNW,293,12.0,25.0,94,0.00,,SKC,0.00,VWS V14.01,2013-02-11 10:10:00,
2013-02-11 04:15:00,26.9,25.4,29.58,WNW,297,11.0,25.0,94,0.00,,SKC,0.00,VWS V14.01,2013-02-11 10:15:00,
2013-02-11 04:20:00,26.8,25.0,29.59,WNW,290,10.0,25.0,93,0.00,,SKC,0.00,VWS V14.01,2013-02-11 10:20:00,
2013-02-11 04:25:00,26.9,25.4,29.60,WNW,294,11.0,25.0,94,0.00,,SKC,0.00,VWS V14.01,2013-02-11 10:25:00,
2013-02-11 04:30:00,26.8,25.0,29.60,West,272,11.0,26.0,93,0.00,,SKC,0.00,VWS V14.01,2013-02-11 10:30:00,
2013-02-11 04:35:00,26.8,25.3,29.61,WNW,298,7.0,18.0,94,0.00,,SKC,0.00,VWS V14.01,2013-02-11 10:35:00,
2013-02-11 04:40:00,26.8,25.0,29.61,WNW,300,8.0,18.0,93,0.00,,SKC,0.00,VWS V14.01,2013-02-11 10:40:00,
2013-02-11 04:45:00,26.7,25.0,29.61,WNW,301,16.0,24.0,93,0.00,,SKC,0.00,VWS V14.01,2013-02-11 10:45:00,
2013-02-11 04:50:00,26.6,24.9,29.62,NW,323,11.0,24.0,93,0.00,,SKC,0.00,VWS V14.01,2013-02-11 10:50:00,
2013-02-11 04:55:00,26.6,24.9,29.62,NW,304,7.0,24.0,93,0.00,,SKC,0.00,VWS V14.01,2013-02-11 10:55:00,
2013-02-11 05:00:00,26.6,24.9,29.62,NW,311,13.0,24.0,93,0.00,,SKC,0.00,VWS V14.01,2013-02-11 11:00:00,
2013-02-11 05:05:00,26.6,24.9,29.63,NW,312,5.0,24.0,93,0.00,,SKC,0.00,VWS V14.01,2013-02-11 11:05:00,
2013-02-11 05:10:00,26.5,24.5,29.63,NW,304,5.0,24.0,92,0.00,,SKC,0.00,VWS V14.01,2013-02-11 11:10:00,
2013-02-11 05:15:00,26.5,24.8,29.64,WNW,290,10.0,24.0,93,0.00,,SKC,0.00,VWS V14.01,2013-02-11 11:15:00,
2013-02-11 05:20:00,26.4,24.6,29.64,WNW,286,8.0,24.0,93,0.00,,SKC,0.00,VWS V14.01,2013-02-11 11:20:00,
2013-02-11 05:25:00,26.3,24.6,29.65,NW,304,12.0,24.0,93,0.00,,SKC,0.00,VWS V14.01,2013-02-11 11:25:00,
2013-02-11 05:30:00,26.3,24.6,29.65,WNW,288,11.0,24.0,93,0.00,,SKC,0.00,VWS V14.01,2013-02-11 11:30:00,
2013-02-11 05:35:00,26.2,24.5,29.65,WNW,302,8.0,29.0,93,0.00,,SKC,0.00,VWS V14.01,2013-02-11 11:35:00,
2013-02-11 05:40:00,26.1,24.4,29.66,NW,319,13.0,29.0,93,0.00,,SKC,0.00,VWS V14.01,2013-02-11 11:40:00,
2013-02-11 05:45:00,25.9,24.2,29.66,WNW,302,11.0,29.0,93,0.00,,SKC,0.00,VWS V14.01,2013-02-11 11:45:00,
2013-02-11 05:50:00,25.7,24.0,29.67,West,270,8.0,29.0,93,0.00,,SKC,0.00,VWS V14.01,2013-02-11 11:50:00,
2013-02-11 05:55:00,25.7,24.0,29.67,WNW,302,11.0,29.0,93,0.00,,SKC,0.00,VWS V14.01,2013-02-11 11:55:00,
2013-02-11 06:00:00,25.7,24.0,29.68,North,351,8.0,29.0,93,0.00,,SKC,0.00,VWS V14.01,2013-02-11 12:00:00,
2013-02-11 06:05:00,25.8,24.3,29.68,WNW,297,7.0,17.0,94,0.00,,SKC,0.00,VWS V14.01,2013-02-11 12:05:00,
2013-02-11 06:10:00,25.9,24.2,29.69,WSW,243,11.0,21.0,93,0.00,,SKC,0.00,VWS V14.01,2013-02-11 12:10:00,
2013-02-11 06:15:00,25.8,23.8,29.69,NNW,327,6.0,21.0,92,0.00,,SKC,0.00,VWS V14.01,2013-02-11 12:15:00,
2013-02-11 06:20:00,25.8,23.8,29.69,WNW,294,17.0,21.0,92,0.00,,SKC,0.00,VWS V14.01,2013-02-11 12:20:00,
2013-02-11 06:25:00,25.8,23.8,29.70,WNW,292,14.0,21.0,92,0.00,,SKC,0.00,VWS V14.01,2013-02-11 12:25:00,
2013-02-11 06:30:00,25.7,23.4,29.70,NW,304,10.0,21.0,91,0.00,,SKC,0.00,VWS V14.01,2013-02-11 12:30:00,
2013-02-11 06:35:00,25.6,23.3,29.71,North,351,9.0,14.0,91,0.00,,SKC,0.00,VWS V14.01,2013-02-11 12:35:00,
2013-02-11 06:40:00,25.6,23.3,29.71,WNW,299,10.0,20.0,91,0.00,,SKC,0.00,VWS V14.01,2013-02-11 12:40:00,
2013-02-11 06:45:00,25.6,23.1,29.71,NW,307,7.0,21.0,90,0.00,,SKC,0.00,VWS V14.01,2013-02-11 12:45:00,
2013-02-11 06:50:00,25.4,23.1,29.72,NNW,333,8.0,21.0,91,0.00,,SKC,0.00,VWS V14.01,2013-02-11 12:50:00,
2013-02-11 06:55:00,25.3,22.8,29.72,WNW,297,17.0,22.0,90,0.00,,SKC,0.00,VWS V14.01,2013-02-11 12:55:00,
2013-02-11 07:00:00,25.2,22.7,29.73,WNW,299,9.0,22.0,90,0.00,,SKC,0.00,VWS V14.01,2013-02-11 13:00:00,
2013-02-11 07:05:00,25.1,22.9,29.73,WNW,302,10.0,18.0,91,0.00,,SKC,0.00,VWS V14.01,2013-02-11 13:05:00,
2013-02-11 07:10:00,25.1,22.6,29.74,WNW,302,7.0,18.0,90,0.00,,SKC,0.00,VWS V14.01,2013-02-11 13:10:00,
2013-02-11 07:15:00,24.9,22.4,29.74,WNW,297,6.0,22.0,90,0.00,,SKC,0.00,VWS V14.01,2013-02-11 13:15:00,
2013-02-11 07:20:00,24.7,21.9,29.75,West,269,16.0,22.0,89,0.00,,SKC,0.00,VWS V14.01,2013-02-11 13:20:00,
2013-02-11 07:25:00,24.5,22.0,29.75,NNW,343,10.0,22.0,90,0.00,,SKC,0.00,VWS V14.01,2013-02-11 13:25:00,
2013-02-11 07:30:00,24.3,21.8,29.75,West,276,12.0,22.0,90,0.00,,SKC,0.00,VWS V14.01,2013-02-11 13:30:00,
2013-02-11 07:35:00,24.3,21.8,29.76,NNW,344,12.0,19.0,90,0.00,,SKC,0.00,VWS V14.01,2013-02-11 13:35:00,
2013-02-11 07:40:00,24.2,22.0,29.76,NNW,338,11.0,19.0,91,0.00,,SKC,0.00,VWS V14.01,2013-02-11 13:40:00,
2013-02-11 07:45:00,24.2,21.7,29.77,NW,311,10.0,19.0,90,0.00,,SKC,0.00,VWS V14.01,2013-02-11 13:45:00,
2013-02-11 07:50:00,24.1,21.6,29.78,NNW,345,7.0,20.0,90,0.00,,SKC,0.00,VWS V14.01,2013-02-11 13:50:00,
2013-02-11 07:55:00,24.0,21.5,29.78,NW,321,14.0,20.0,90,0.00,,SKC,0.00,VWS V14.01,2013-02-11 13:55:00,
2013-02-11 08:00:00,24.0,21.2,29.78,WNW,295,9.0,20.0,89,0.00,,SKC,0.00,VWS V14.01,2013-02-11 14:00:00,
2013-02-11 08:05:00,24.1,21.6,29.79,West,264,13.0,18.0,90,0.00,,SKC,0.00,VWS V14.01,2013-02-11 14:05:00,
2013-02-11 08:10:00,24.1,21.3,29.80,NW,321,6.0,21.0,89,0.00,,SKC,0.00,VWS V14.01,2013-02-11 14:10:00,
2013-02-11 08:15:00,24.2,21.4,29.80,NW,316,9.0,21.0,89,0.00,,SKC,0.00,VWS V14.01,2013-02-11 14:15:00,
2013-02-11 08:20:00,24.2,21.4,29.80,NNW,332,11.0,21.0,89,0.00,,SKC,0.00,VWS V14.01,2013-02-11 14:20:00,
2013-02-11 08:25:00,24.1,21.3,29.81,NW,311,14.0,21.0,89,0.00,,SKC,0.00,VWS V14.01,2013-02-11 14:25:00,
2013-02-11 08:30:00,24.0,21.2,29.81,WNW,286,11.0,26.0,89,0.00,,SKC,0.00,VWS V14.01,2013-02-11 14:30:00,
2013-02-11 08:35:00,24.0,21.2,29.81,NW,311,10.0,20.0,89,0.00,,SKC,0.00,VWS V14.01,2013-02-11 14:35:00,
2013-02-11 08:40:00,24.0,21.2,29.82,West,276,10.0,20.0,89,0.00,,SKC,0.00,VWS V14.01,2013-02-11 14:40:00,
2013-02-11 08:45:00,24.0,21.2,29.82,WNW,294,7.0,20.0,89,0.00,,SKC,0.00,VWS V14.01,2013-02-11 14:45:00,
2013-02-11 08:50:00,24.0,21.2,29.82,WNW,291,9.0,20.0,89,0.00,,SKC,0.00,VWS V14.01,2013-02-11 14:50:00,
2013-02-11 08:55:00,23.9,20.9,29.83,NNW,328,4.0,20.0,88,0.00,,SKC,0.00,VWS V14.01,2013-02-11 14:55:00,
2013-02-11 09:00:00,23.9,20.9,29.83,NW,311,7.0,20.0,88,0.00,,SKC,0.00,VWS V14.01,2013-02-11 15:00:00,
2013-02-11 09:05:00,24.0,21.2,29.83,NW,309,8.0,15.0,89,0.00,,SKC,0.00,VWS V14.01,2013-02-11 15:05:00,
2013-02-11 09:10:00,24.2,21.7,29.83,North,356,15.0,16.0,90,0.00,,SKC,0.00,VWS V14.01,2013-02-11 15:10:00,
2013-02-11 09:15:00,24.2,21.4,29.84,NW,305,12.0,18.0,89,0.00,,SKC,0.00,VWS V14.01,2013-02-11 15:15:00,
2013-02-11 09:20:00,24.1,21.1,29.84,WNW,285,8.0,18.0,88,0.00,,SKC,0.00,VWS V14.01,2013-02-11 15:20:00,
2013-02-11 09:25:00,24.2,21.2,29.84,NNW,338,5.0,18.0,88,0.00,,SKC,0.00,VWS V14.01,2013-02-11 15:25:00,
2013-02-11 09:30:00,24.0,21.5,29.85,NW,308,15.0,19.0,90,0.00,,SKC,0.00,VWS V14.01,2013-02-11 15:30:00,
2013-02-11 09:35:00,23.8,20.8,29.86,WNW,303,8.0,21.0,88,0.00,,SKC,0.00,VWS V14.01,2013-02-11 15:35:00,
2013-02-11 09:40:00,23.9,20.9,29.86,WNW,303,8.0,22.0,88,0.00,,SKC,0.00,VWS V14.01,2013-02-11 15:40:00,
2013-02-11 09:45:00,24.0,21.0,29.86,WNW,290,16.0,22.0,88,0.00,,SKC,0.00,VWS V14.01,2013-02-11 15:45:00,
2013-02-11 09:50:00,24.0,21.0,29.86,WNW,301,17.0,22.0,88,0.00,,SKC,0.00,VWS V14.01,2013-02-11 15:50:00,
2013-02-11 09:55:00,24.0,21.0,29.86,WNW,287,13.0,22.0,88,0.00,,SKC,0.00,VWS V14.01,2013-02-11 15:55:00,
2013-02-11 10:00:00,24.1,21.3,29.86,West,277,18.0,22.0,89,0.00,,SKC,0.00,VWS V14.01,2013-02-11 16:00:00,
2013-02-11 10:05:00,24.0,20.7,29.86,WNW,295,17.0,24.0,87,0.00,,SKC,0.00,VWS V14.01,2013-02-11 16:05:00,
2013-02-11 10:10:00,24.1,20.8,29.87,WNW,300,8.0,24.0,87,0.00,,SKC,0.00,VWS V14.01,2013-02-11 16:10:00,
2013-02-11 10:15:00,24.2,20.6,29.87,NNW,341,6.0,24.0,86,0.00,,SKC,0.00,VWS V14.01,2013-02-11 16:15:00,
2013-02-11 10:20:00,24.4,21.1,29.87,NNW,328,7.0,24.0,87,0.00,,SKC,0.00,VWS V14.01,2013-02-11 16:20:00,
2013-02-11 10:25:00,24.5,21.2,29.88,NW,315,5.0,24.0,87,0.00,,SKC,0.00,VWS V14.01,2013-02-11 16:25:00,
2013-02-11 10:30:00,24.6,21.0,29.88,WNW,294,16.0,24.0,86,0.00,,SKC,0.00,VWS V14.01,2013-02-11 16:30:00,
2013-02-11 10:35:00,24.4,20.8,29.88,NW,307,13.0,18.0,86,0.00,,SKC,0.00,VWS V14.01,2013-02-11 16:35:00,
2013-02-11 10:40:00,24.5,20.9,29.88,NW,323,12.0,20.0,86,0.00,,SKC,0.00,VWS V14.01,2013-02-11 16:40:00,
2013-02-11 10:45:00,24.7,21.1,29.89,West,276,12.0,20.0,86,0.00,,SKC,0.00,VWS V14.01,2013-02-11 16:45:00,
2013-02-11 10:50:00,24.8,21.2,29.89,NW,304,4.0,20.0,86,0.00,,SKC,0.00,VWS V14.01,2013-02-11 16:50:00,
2013-02-11 10:55:00,24.9,21.0,29.90,NW,319,8.0,20.0,85,0.00,,SKC,0.00,VWS V14.01,2013-02-11 16:55:00,
2013-02-11 11:00:00,24.9,21.3,29.89,NW,306,14.0,20.0,86,0.00,,SKC,0.00,VWS V14.01,2013-02-11 17:00:00,
2013-02-11 11:05:00,25.0,21.1,29.90,WNW,301,8.0,22.0,85,0.00,,SKC,0.00,VWS V14.01,2013-02-11 17:05:00,
2013-02-11 11:10:00,25.1,21.2,29.90,WNW,302,13.0,22.0,85,0.00,,SKC,0.00,VWS V14.01,2013-02-11 17:10:00,
2013-02-11 11:15:00,25.3,20.9,29.91,NW,314,7.0,23.0,83,0.00,,SKC,0.00,VWS V14.01,2013-02-11 17:15:00,
2013-02-11 11:20:00,25.3,21.1,29.91,NNW,337,8.0,23.0,84,0.00,,SKC,0.00,VWS V14.01,2013-02-11 17:20:00,
2013-02-11 11:25:00,25.3,20.9,29.91,West,261,12.0,24.0,83,0.00,,SKC,0.00,VWS V14.01,2013-02-11 17:25:00,
2013-02-11 11:30:00,25.3,21.1,29.92,NW,321,7.0,24.0,84,0.00,,SKC,0.00,VWS V14.01,2013-02-11 17:30:00,
2013-02-11 11:35:00,25.3,21.1,29.92,West,281,8.0,20.0,84,0.00,,SKC,0.00,VWS V14.01,2013-02-11 17:35:00,
2013-02-11 11:40:00,25.4,21.5,29.92,NNW,345,5.0,20.0,85,0.00,,SKC,0.00,VWS V14.01,2013-02-11 17:40:00,
2013-02-11 11:45:00,25.4,21.5,29.92,WNW,286,9.0,20.0,85,0.00,,SKC,0.00,VWS V14.01,2013-02-11 17:45:00,
2013-02-11 11:50:00,25.3,20.9,29.93,NNW,339,12.0,27.0,83,0.00,,SKC,0.00,VWS V14.01,2013-02-11 17:50:00,
2013-02-11 11:55:00,25.3,20.9,29.92,NW,325,10.0,27.0,83,0.00,,SKC,0.00,VWS V14.01,2013-02-11 17:55:00,
2013-02-11 12:00:00,25.2,21.0,29.92,WNW,292,11.0,27.0,84,0.00,,SKC,0.00,VWS V14.01,2013-02-11 18:00:00,
2013-02-11 12:05:00,25.3,21.1,29.93,WNW,283,10.0,16.0,84,0.00,,SKC,0.00,VWS V14.01,2013-02-11 18:05:00,
2013-02-11 12:10:00,25.3,21.1,29.92,WNW,298,16.0,21.0,84,0.00,,SKC,0.00,VWS V14.01,2013-02-11 18:10:00,
2013-02-11 12:15:00,25.3,20.9,29.93,NW,321,9.0,21.0,83,0.00,,SKC,0.00,VWS V14.01,2013-02-11 18:15:00,
2013-02-11 12:20:00,25.4,20.7,29.93,NW,309,9.0,21.0,82,0.00,,SKC,0.00,VWS V14.01,2013-02-11 18:20:00,
2013-02-11 12:25:00,25.3,21.1,29.93,NW,307,10.0,21.0,84,0.00,,SKC,0.00,VWS V14.01,2013-02-11 18:25:00,
2013-02-11 12:30:00,25.3,20.9,29.93,WNW,282,7.0,22.0,83,0.00,,SKC,0.00,VWS V14.01,2013-02-11 18:30:00,
2013-02-11 12:36:00,25.2,20.5,29.93,WNW,291,11.0,18.0,82,0.00,,SKC,0.00,VWS V14.01,2013-02-11 18:36:00,
2013-02-11 12:41:00,25.2,20.2,29.93,NW,308,12.0,19.0,81,0.00,,SKC,0.00,VWS V14.01,2013-02-11 18:41:00,
2013-02-11 12:46:00,25.3,20.6,29.93,WNW,285,7.0,20.0,82,0.00,,SKC,0.00,VWS V14.01,2013-02-11 18:46:00,
2013-02-11 12:51:00,25.3,20.6,29.94,WNW,288,6.0,22.0,82,0.00,,SKC,0.00,VWS V14.01,2013-02-11 18:51:00,
2013-02-11 12:56:00,25.4,21.0,29.94,NNW,330,10.0,22.0,83,0.00,,SKC,0.00,VWS V14.01,2013-02-11 18:56:00,
2013-02-11 13:00:00,25.3,20.9,29.94,West,273,9.0,22.0,83,0.00,,SKC,0.00,VWS V14.01,2013-02-11 19:00:00,
2013-02-11 13:01:00,25.3,20.9,29.94,WNW,297,6.0,7.0,83,0.00,,SKC,0.00,VWS V14.01,2013-02-11 19:01:00,
2013-02-11 13:06:00,25.4,21.2,29.95,WNW,302,5.0,12.0,84,0.00,,SKC,0.00,VWS V14.01,2013-02-11 19:06:00,
2013-02-11 13:11:00,25.3,20.9,29.95,NW,308,4.0,14.0,83,0.00,,SKC,0.00,VWS V14.01,2013-02-11 19:11:00,
2013-02-11 13:16:00,25.2,21.3,29.95,NW,308,7.0,14.0,85,0.00,,SKC,0.00,VWS V14.01,2013-02-11 19:16:00,
2013-02-11 13:21:00,25.2,21.6,29.95,WNW,300,4.0,14.0,86,0.00,,SKC,0.00,VWS V14.01,2013-02-11 19:21:00,
2013-02-11 13:26:00,25.3,21.1,29.95,NW,308,15.0,18.0,84,0.00,,SKC,0.00,VWS V14.01,2013-02-11 19:26:00,
2013-02-11 13:30:00,25.1,21.0,29.95,NW,308,8.0,19.0,84,0.00,,SKC,0.00,VWS V14.01,2013-02-11 19:30:00,
2013-02-11 13:31:00,25.1,21.2,29.95,NNW,336,9.0,17.0,85,0.00,,SKC,0.00,VWS V14.01,2013-02-11 19:31:00,
2013-02-11 13:36:00,24.9,21.3,29.96,NW,325,6.0,18.0,86,0.00,,SKC,0.00,VWS V14.01,2013-02-11 19:36:00,
2013-02-11 13:41:00,24.7,21.7,29.96,WNW,298,7.0,18.0,88,0.00,,SKC,0.00,VWS V14.01,2013-02-11 19:41:00,
2013-02-11 13:46:00,24.8,21.8,29.96,WNW,296,13.0,18.0,88,0.00,,SKC,0.00,VWS V14.01,2013-02-11 19:46:00,
2013-02-11 13:51:00,24.8,20.4,29.96,NW,326,6.0,18.0,83,0.00,,SKC,0.00,VWS V14.01,2013-02-11 19:51:00,
2013-02-11 13:56:00,24.9,21.0,29.97,WNW,302,17.0,19.0,85,0.00,,SKC,0.00,VWS V14.01,2013-02-11 19:56:00,
2013-02-11 14:00:00,24.8,20.1,29.97,NW,306,14.0,22.0,82,0.00,,SKC,0.00,VWS V14.01,2013-02-11 20:00:00,
2013-02-11 14:01:00,24.8,20.1,29.97,NNW,339,8.0,16.0,82,0.00,,SKC,0.00,VWS V14.01,2013-02-11 20:01:00,
2013-02-11 14:06:00,25.0,20.3,29.97,WNW,285,15.0,20.0,82,0.00,,SKC,0.00,VWS V14.01,2013-02-11 20:06:00,
2013-02-11 14:11:00,24.9,19.9,29.97,WNW,294,17.0,27.0,81,0.00,,SKC,0.00,VWS V14.01,2013-02-11 20:11:00,
2013-02-11 14:16:00,24.9,20.2,29.97,NNW,335,12.0,27.0,82,0.00,,SKC,0.00,VWS V14.01,2013-02-11 20:16:00,
2013-02-11 14:21:00,25.0,20.6,29.97,NW,319,7.0,27.0,83,0.00,,SKC,0.00,VWS V14.01,2013-02-11 20:21:00,
2013-02-11 14:26:00,25.0,19.7,29.97,NW,309,7.0,27.0,80,0.00,,SKC,0.00,VWS V14.01,2013-02-11 20:26:00,
2013-02-11 14:30:00,24.9,19.9,29.97,NNW,348,7.0,27.0,81,0.00,,SKC,0.00,VWS V14.01,2013-02-11 20:30:00,
2013-02-11 14:31:00,24.9,19.9,29.97,NW,318,6.0,10.0,81,0.00,,SKC,0.00,VWS V14.01,2013-02-11 20:31:00,
2013-02-11 14:36:00,25.0,20.9,29.98,NW,307,4.0,18.0,84,0.00,,SKC,0.00,VWS V14.01,2013-02-11 20:36:00,
2013-02-11 14:41:00,25.0,20.6,29.98,NNW,331,12.0,18.0,83,0.00,,SKC,0.00,VWS V14.01,2013-02-11 20:41:00,
2013-02-11 14:46:00,24.8,20.1,29.98,NW,319,6.0,18.0,82,0.00,,SKC,0.00,VWS V14.01,2013-02-11 20:46:00,
2013-02-11 14:51:00,24.7,20.0,29.99,NNW,337,6.0,18.0,82,0.00,,SKC,0.00,VWS V14.01,2013-02-11 20:51:00,
2013-02-11 14:56:00,24.7,20.0,29.98,WNW,282,5.0,18.0,82,0.00,,SKC,0.00,VWS V14.01,2013-02-11 20:56:00,
2013-02-11 15:00:00,24.6,20.5,29.99,WNW,300,13.0,18.0,84,0.00,,SKC,0.00,VWS V14.01,2013-02-11 21:00:00,
2013-02-11 15:01:00,24.6,20.5,29.99,NNW,339,14.0,15.0,84,0.00,,SKC,0.00,VWS V14.01,2013-02-11 21:01:00,
2013-02-11 15:06:00,24.6,20.5,29.99,NW,307,7.0,16.0,84,0.00,,SKC,0.00,VWS V14.01,2013-02-11 21:06:00,
2013-02-11 15:11:00,24.6,20.2,29.99,NW,317,4.0,17.0,83,0.00,,SKC,0.00,VWS V14.01,2013-02-11 21:11:00,
2013-02-11 15:16:00,24.5,19.8,29.99,WNW,302,7.0,23.0,82,0.00,,SKC,0.00,VWS V14.01,2013-02-11 21:16:00,
2013-02-11 15:21:00,24.6,20.2,30.00,WNW,301,8.0,23.0,83,0.00,,SKC,0.00,VWS V14.01,2013-02-11 21:21:00,
2013-02-11 15:26:00,24.6,19.9,30.00,NW,319,8.0,23.0,82,0.00,,SKC,0.00,VWS V14.01,2013-02-11 21:26:00,
2013-02-11 15:30:00,24.4,19.1,30.00,NNW,331,6.0,23.0,80,0.00,,SKC,0.00,VWS V14.01,2013-02-11 21:30:00,
2013-02-11 15:31:00,24.4,19.1,30.00,WNW,303,7.0,9.0,80,0.00,,SKC,0.00,VWS V14.01,2013-02-11 21:31:00,
2013-02-11 15:36:00,24.3,19.6,30.00,NNW,340,5.0,18.0,82,0.00,,SKC,0.00,VWS V14.01,2013-02-11 21:36:00,
2013-02-11 15:41:00,24.3,19.6,30.00,NW,311,12.0,18.0,82,0.00,,SKC,0.00,VWS V14.01,2013-02-11 21:41:00,
2013-02-11 15:46:00,24.2,19.5,30.00,NW,323,7.0,18.0,82,0.00,,SKC,0.00,VWS V14.01,2013-02-11 21:46:00,
2013-02-11 15:51:00,24.2,19.8,30.00,NW,309,8.0,18.0,83,0.00,,SKC,0.00,VWS V14.01,2013-02-11 21:51:00,
2013-02-11 15:56:00,24.3,20.2,30.01,WNW,298,6.0,18.0,84,0.00,,SKC,0.00,VWS V14.01,2013-02-11 21:56:00,
2013-02-11 16:00:00,24.3,19.9,30.01,NW,315,5.0,18.0,83,0.00,,SKC,0.00,VWS V14.01,2013-02-11 22:00:00,
2013-02-11 16:01:00,24.3,19.9,30.01,NW,315,3.0,6.0,83,0.00,,SKC,0.00,VWS V14.01,2013-02-11 22:01:00,
2013-02-11 16:06:00,24.0,19.9,30.01,NNW,335,6.0,12.0,84,0.00,,SKC,0.00,VWS V14.01,2013-02-11 22:06:00,
2013-02-11 16:11:00,23.8,19.4,30.02,NW,311,7.0,12.0,83,0.00,,SKC,0.00,VWS V14.01,2013-02-11 22:11:00,
2013-02-11 16:16:00,23.7,19.0,30.02,NW,315,4.0,12.0,82,0.00,,SKC,0.00,VWS V14.01,2013-02-11 22:16:00,
2013-02-11 16:21:00,23.6,18.9,30.02,NW,316,4.0,13.0,82,0.00,,SKC,0.00,VWS V14.01,2013-02-11 22:21:00,
2013-02-11 16:26:00,23.5,19.1,30.02,WNW,296,13.0,13.0,83,0.00,,SKC,0.00,VWS V14.01,2013-02-11 22:26:00,
2013-02-11 16:30:00,23.6,19.2,30.01,NNW,327,6.0,13.0,83,0.00,,SKC,0.00,VWS V14.01,2013-02-11 22:30:00,
2013-02-11 16:31:00,23.6,19.2,30.01,NW,305,3.0,9.0,83,0.00,,SKC,0.00,VWS V14.01,2013-02-11 22:31:00,
2013-02-11 16:36:00,23.6,19.2,30.02,NNW,331,8.0,13.0,83,0.00,,SKC,0.00,VWS V14.01,2013-02-11 22:36:00,
2013-02-11 16:41:00,23.7,19.3,30.02,WNW,298,3.0,13.0,83,0.00,,SKC,0.00,VWS V14.01,2013-02-11 22:41:00,
2013-02-11 16:46:00,23.7,19.6,30.02,NW,308,5.0,13.0,84,0.00,,SKC,0.00,VWS V14.01,2013-02-11 22:46:00,
2013-02-11 16:51:00,23.8,19.4,30.02,North,4,9.0,13.0,83,0.00,,SKC,0.00,VWS V14.01,2013-02-11 22:51:00,
2013-02-11 16:56:00,23.9,19.5,30.02,NW,305,3.0,13.0,83,0.00,,SKC,0.00,VWS V14.01,2013-02-11 22:56:00,
2013-02-11 17:00:00,23.8,19.4,30.02,WNW,296,4.0,16.0,83,0.00,,SKC,0.00,VWS V14.01,2013-02-11 23:00:00,
2013-02-11 17:01:00,23.9,19.5,30.02,WNW,291,8.0,8.0,83,0.00,,SKC,0.00,VWS V14.01,2013-02-11 23:01:00,
2013-02-11 17:06:00,23.9,19.8,30.02,NW,304,5.0,11.0,84,0.00,,SKC,0.00,VWS V14.01,2013-02-11 23:06:00,
2013-02-11 17:11:00,23.8,19.4,30.02,NW,321,6.0,14.0,83,0.00,,SKC,0.00,VWS V14.01,2013-02-11 23:11:00,
2013-02-11 17:16:00,23.7,19.0,30.02,West,276,4.0,14.0,82,0.00,,SKC,0.00,VWS V14.01,2013-02-11 23:16:00,
2013-02-11 17:21:00,23.7,19.3,30.03,NNW,331,6.0,14.0,83,0.00,,SKC,0.00,VWS V14.01,2013-02-11 23:21:00,
2013-02-11 17:26:00,23.5,19.1,30.03,NW,319,7.0,14.0,83,0.00,,SKC,0.00,VWS V14.01,2013-02-11 23:26:00,
2013-02-11 17:30:00,23.3,18.3,30.03,West,272,8.0,16.0,81,0.00,,SKC,0.00,VWS V14.01,2013-02-11 23:30:00,
2013-02-11 17:31:00,23.2,18.2,30.03,WNW,287,9.0,10.0,81,0.00,,SKC,0.00,VWS V14.01,2013-02-11 23:31:00,
2013-02-11 17:36:00,23.1,18.1,30.03,NW,311,9.0,14.0,81,0.00,,SKC,0.00,VWS V14.01,2013-02-11 23:36:00,
2013-02-11 17:41:00,23.0,18.0,30.03,NW,311,11.0,16.0,81,0.00,,SKC,0.00,VWS V14.01,2013-02-11 23:41:00,
2013-02-11 17:46:00,22.9,18.0,30.04,NNE,18,7.0,16.0,81,0.00,,SKC,0.00,VWS V14.01,2013-02-11 23:46:00,
2013-02-11 17:51:00,22.8,18.1,30.04,NNW,328,5.0,16.0,82,0.00,,SKC,0.00,VWS V14.01,2013-02-11 23:51:00,
2013-02-11 17:56:00,22.8,18.1,30.04,WNW,300,4.0,16.0,82,0.00,,SKC,0.00,VWS V14.01,2013-02-11 23:56:00,
2013-02-11 18:00:00,22.8,18.4,30.05,WNW,288,5.0,16.0,83,0.00,,SKC,0.00,VWS V14.01,2013-02-12 00:00:00,
2013-02-11 18:01:00,22.7,18.3,30.05,NNW,346,6.0,6.0,83,0.00,,SKC,0.00,VWS V14.01,2013-02-12 00:01:00,
2013-02-11 18:06:00,22.7,18.6,30.05,NW,311,2.0,12.0,84,0.00,,SKC,0.00,VWS V14.01,2013-02-12 00:06:00,
2013-02-11 18:11:00,22.7,18.6,30.05,NW,311,5.0,12.0,84,0.00,,SKC,0.00,VWS V14.01,2013-02-12 00:11:00,
2013-02-11 18:16:00,22.8,18.7,30.06,NW,316,7.0,12.0,84,0.00,,SKC,0.00,VWS V14.01,2013-02-12 00:16:00,
2013-02-11 18:21:00,22.7,18.6,30.05,NW,307,6.0,12.0,84,0.00,,SKC,0.00,VWS V14.01,2013-02-12 00:21:00,
2013-02-11 18:26:00,22.6,18.2,30.06,WNW,288,4.0,13.0,83,0.00,,SKC,0.00,VWS V14.01,2013-02-12 00:26:00,
2013-02-11 18:30:00,22.5,18.1,30.06,NW,309,7.0,13.0,83,0.00,,SKC,0.00,VWS V14.01,2013-02-12 00:30:00,
2013-02-11 18:31:00,22.5,18.1,30.06,NW,309,9.0,10.0,83,0.00,,SKC,0.00,VWS V14.01,2013-02-12 00:31:00,
2013-02-11 18:36:00,22.4,18.0,30.07,NW,311,7.0,12.0,83,0.00,,SKC,0.00,VWS V14.01,2013-02-12 00:36:00,
2013-02-11 18:41:00,22.4,18.3,30.07,NW,319,2.0,12.0,84,0.00,,SKC,0.00,VWS V14.01,2013-02-12 00:41:00,
2013-02-11 18:46:00,22.4,18.0,30.07,WNW,288,6.0,16.0,83,0.00,,SKC,0.00,VWS V14.01,2013-02-12 00:46:00,
2013-02-11 18:51:00,22.4,18.0,30.07,NNW,335,4.0,16.0,83,0.00,,SKC,0.00,VWS V14.01,2013-02-12 00:51:00,
2013-02-11 18:56:00,22.3,17.9,30.07,NW,311,8.0,16.0,83,0.00,,SKC,0.00,VWS V14.01,2013-02-12 00:56:00,
2013-02-11 19:00:00,22.2,17.5,30.07,NNW,335,5.0,16.0,82,0.00,,SKC,0.00,VWS V14.01,2013-02-12 01:00:00,
2013-02-11 19:01:00,22.3,17.6,30.07,North,11,6.0,6.0,82,0.00,,SKC,0.00,VWS V14.01,2013-02-12 01:01:00,
2013-02-11 19:06:00,22.3,17.6,30.07,NW,307,6.0,12.0,82,0.00,,SKC,0.00,VWS V14.01,2013-02-12 01:06:00,
2013-02-11 19:11:00,22.3,17.9,30.07,NW,319,5.0,12.0,83,0.00,,SKC,0.00,VWS V14.01,2013-02-12 01:11:00,
2013-02-11 19:16:00,22.3,17.9,30.07,WNW,290,9.0,12.0,83,0.00,,SKC,0.00,VWS V14.01,2013-02-12 01:16:00,
2013-02-11 19:21:00,22.4,18.0,30.07,WNW,297,10.0,12.0,83,0.00,,SKC,0.00,VWS V14.01,2013-02-12 01:21:00,
2013-02-11 19:26:00,22.5,18.4,30.07,WNW,286,9.0,14.0,84,0.00,,SKC,0.00,VWS V14.01,2013-02-12 01:26:00,
2013-02-11 19:30:00,22.5,18.4,30.07,WNW,297,5.0,14.0,84,0.00,,SKC,0.00,VWS V14.01,2013-02-12 01:30:00,
2013-02-11 19:31:00,22.5,18.4,30.07,WNW,299,8.0,8.0,84,0.00,,SKC,0.00,VWS V14.01,2013-02-12 01:31:00,
2013-02-11 19:36:00,22.6,18.5,30.07,WSW,246,8.0,13.0,84,0.00,,SKC,0.00,VWS V14.01,2013-02-12 01:36:00,
2013-02-11 19:41:00,22.6,18.5,30.07,NW,307,5.0,13.0,84,0.00,,SKC,0.00,VWS V14.01,2013-02-12 01:41:00,
2013-02-11 19:46:00,22.5,17.9,30.07,NW,319,6.0,13.0,82,0.00,,SKC,0.00,VWS V14.01,2013-02-12 01:46:00,
2013-02-11 19:51:00,22.1,17.2,30.08,WNW,292,6.0,13.0,81,0.00,,SKC,0.00,VWS V14.01,2013-02-12 01:51:00,
2013-02-11 19:56:00,21.8,17.2,30.08,WNW,301,9.0,13.0,82,0.00,,SKC,0.00,VWS V14.01,2013-02-12 01:56:00,
2013-02-11 20:00:00,21.6,17.0,30.08,NW,319,4.0,13.0,82,0.00,,SKC,0.00,VWS V14.01,2013-02-12 02:00:00,
2013-02-11 20:01:00,21.6,17.0,30.08,NW,317,12.0,12.0,82,0.00,,SKC,0.00,VWS V14.01,2013-02-12 02:01:00,
2013-02-11 20:06:00,21.5,16.6,30.08,WNW,301,5.0,12.0,81,0.00,,SKC,0.00,VWS V14.01,2013-02-12 02:06:00,
2013-02-11 20:11:00,21.4,16.8,30.08,WNW,283,9.0,12.0,82,0.00,,SKC,0.00,VWS V14.01,2013-02-12 02:11:00,
2013-02-11 20:16:00,21.4,16.8,30.08,North,355,7.0,13.0,82,0.00,,SKC,0.00,VWS V14.01,2013-02-12 02:16:00,
2013-02-11 20:21:00,21.4,16.8,30.08,WNW,298,2.0,13.0,82,0.00,,SKC,0.00,VWS V14.01,2013-02-12 02:21:00,
2013-02-11 20:26:00,21.4,17.0,30.08,NW,308,5.0,13.0,83,0.00,,SKC,0.00,VWS V14.01,2013-02-12 02:26:00,
2013-02-11 20:30:00,21.4,16.8,30.08,NW,319,1.0,13.0,82,0.00,,SKC,0.00,VWS V14.01,2013-02-12 02:30:00,
2013-02-11 20:31:00,21.4,16.8,30.08,NNW,335,3.0,3.0,82,0.00,,SKC,0.00,VWS V14.01,2013-02-12 02:31:00,
2013-02-11 20:36:00,21.5,16.9,30.08,WNW,291,2.0,6.0,82,0.00,,SKC,0.00,VWS V14.01,2013-02-12 02:36:00,
2013-02-11 20:41:00,21.5,16.9,30.08,WNW,302,4.0,8.0,82,0.00,,SKC,0.00,VWS V14.01,2013-02-12 02:41:00,
2013-02-11 20:46:00,21.5,17.1,30.08,WNW,300,3.0,8.0,83,0.00,,SKC,0.00,VWS V14.01,2013-02-12 02:46:00,
2013-02-11 20:51:00,21.5,17.1,30.08,NW,317,4.0,9.0,83,0.00,,SKC,0.00,VWS V14.01,2013-02-12 02:51:00,
2013-02-11 20:56:00,21.5,17.1,30.08,NW,304,4.0,9.0,83,0.00,,SKC,0.00,VWS V14.01,2013-02-12 02:56:00,
2013-02-11 21:00:00,21.5,17.1,30.09,WNW,301,5.0,9.0,83,0.00,,SKC,0.00,VWS V14.01,2013-02-12 03:00:00,
2013-02-11 21:01:00,21.5,17.1,30.09,NW,315,2.0,5.0,83,0.00,,SKC,0.00,VWS V14.01,2013-02-12 03:01:00,
2013-02-11 21:06:00,21.5,17.4,30.09,WNW,295,6.0,10.0,84,0.00,,SKC,0.00,VWS V14.01,2013-02-12 03:06:00,
2013-02-11 21:11:00,21.5,17.1,30.09,NW,311,4.0,10.0,83,0.00,,SKC,0.00,VWS V14.01,2013-02-12 03:11:00,
2013-02-11 21:16:00,21.5,17.1,30.09,NW,305,6.0,10.0,83,0.00,,SKC,0.00,VWS V14.01,2013-02-12 03:16:00,
2013-02-11 21:21:00,21.5,17.1,30.09,NNW,345,2.0,10.0,83,0.00,,SKC,0.00,VWS V14.01,2013-02-12 03:21:00,
2013-02-11 21:26:00,21.5,17.1,30.09,NW,316,5.0,10.0,83,0.00,,SKC,0.00,VWS V14.01,2013-02-12 03:26:00,
2013-02-11 21:30:00,21.5,17.1,30.09,NNW,329,4.0,10.0,83,0.00,,SKC,0.00,VWS V14.01,2013-02-12 03:30:00,
2013-02-11 21:31:00,21.5,17.1,30.09,WNW,293,4.0,6.0,83,0.00,,SKC,0.00,VWS V14.01,2013-02-12 03:31:00,
2013-02-11 21:36:00,21.5,17.1,30.09,NW,319,5.0,8.0,83,0.00,,SKC,0.00,VWS V14.01,2013-02-12 03:36:00,
2013-02-11 21:41:00,21.4,17.0,30.09,West,264,4.0,8.0,83,0.00,,SKC,0.00,VWS V14.01,2013-02-12 03:41:00,
2013-02-11 21:46:00,21.4,17.0,30.09,NNW,333,3.0,8.0,83,0.00,,SKC,0.00,VWS V14.01,2013-02-12 03:46:00,
2013-02-11 21:51:00,21.4,17.3,30.09,WNW,301,3.0,8.0,84,0.00,,SKC,0.00,VWS V14.01,2013-02-12 03:51:00,
2013-02-11 21:56:00,21.4,17.3,30.09,NW,311,4.0,8.0,84,0.00,,SKC,0.00,VWS V14.01,2013-02-12 03:56:00,
2013-02-11 22:00:00,21.4,17.3,30.09,NW,319,3.0,8.0,84,0.00,,SKC,0.00,VWS V14.01,2013-02-12 04:00:00,
2013-02-11 22:01:00,21.3,17.2,30.09,WNW,288,3.0,6.0,84,0.00,,SKC,0.00,VWS V14.01,2013-02-12 04:01:00,
2013-02-11 22:06:00,21.4,17.3,30.09,NW,319,3.0,7.0,84,0.00,,SKC,0.00,VWS V14.01,2013-02-12 04:06:00,
2013-02-11 22:11:00,21.4,17.3,30.09,NW,304,1.0,7.0,84,0.00,,SKC,0.00,VWS V14.01,2013-02-12 04:11:00,
2013-02-11 22:16:00,21.4,17.3,30.09,NW,311,3.0,7.0,84,0.00,,SKC,0.00,VWS V14.01,2013-02-12 04:16:00,
2013-02-11 22:21:00,21.4,17.3,30.10,WNW,303,5.0,8.0,84,0.00,,SKC,0.00,VWS V14.01,2013-02-12 04:21:00,
2013-02-11 22:26:00,21.4,17.3,30.10,WNW,291,6.0,12.0,84,0.00,,SKC,0.00,VWS V14.01,2013-02-12 04:26:00,
2013-02-11 22:30:00,21.4,17.3,30.10,NW,323,3.0,12.0,84,0.00,,SKC,0.00,VWS V14.01,2013-02-12 04:30:00,
2013-02-11 22:31:00,21.4,17.6,30.10,NW,307,4.0,4.0,85,0.00,,SKC,0.00,VWS V14.01,2013-02-12 04:31:00,
2013-02-11 22:36:00,21.4,17.3,30.10,WNW,294,1.0,8.0,84,0.00,,SKC,0.00,VWS V14.01,2013-02-12 04:36:00,
2013-02-11 22:41:00,21.3,17.2,30.09,NNW,331,4.0,8.0,84,0.00,,SKC,0.00,VWS V14.01,2013-02-12 04:41:00,
2013-02-11 22:46:00,21.3,17.2,30.09,North,360,2.0,8.0,84,0.00,,SKC,0.00,VWS V14.01,2013-02-12 04:46:00,
2013-02-11 22:51:00,21.3,17.2,30.09,NW,311,4.0,8.0,84,0.00,,SKC,0.00,VWS V14.01,2013-02-12 04:51:00,
2013-02-11 22:56:00,21.3,17.2,30.09,NW,309,1.0,8.0,84,0.00,,SKC,0.00,VWS V14.01,2013-02-12 04:56:00,
2013-02-11 23:00:00,21.2,17.1,30.09,WNW,295,1.0,8.0,84,0.00,,SKC,0.00,VWS V14.01,2013-02-12 05:00:00,
2013-02-11 23:05:00,21.1,17.0,30.10,NNW,346,3.0,4.0,84,0.00,,SKC,0.00,VWS V14.01,2013-02-12 05:05:00,
2013-02-11 23:10:00,21.1,17.0,30.10,NNW,336,3.0,5.0,84,0.00,,SKC,0.00,VWS V14.01,2013-02-12 05:10:00,
2013-02-11 23:15:00,21.1,17.0,30.10,NW,304,5.0,7.0,84,0.00,,SKC,0.00,VWS V14.01,2013-02-12 05:15:00,
2013-02-11 23:20:00,21.1,17.0,30.10,NW,321,3.0,9.0,84,0.00,,SKC,0.00,VWS V14.01,2013-02-12 05:20:00,
2013-02-11 23:25:00,20.9,16.8,30.10,NNW,337,2.0,11.0,84,0.00,,SKC,0.00,VWS V14.01,2013-02-12 05:25:00,
2013-02-11 23:30:00,20.9,16.8,30.10,NW,326,5.0,11.0,84,0.00,,SKC,0.00,VWS V14.01,2013-02-12 05:30:00,
2013-02-11 23:35:00,20.9,16.8,30.10,NW,323,2.0,7.0,84,0.00,,SKC,0.00,VWS V14.01,2013-02-12 05:35:00,
2013-02-11 23:40:00,20.9,17.1,30.10,NW,315,2.0,8.0,85,0.00,,SKC,0.00,VWS V14.01,2013-02-12 05:40:00,
2013-02-11 23:45:00,20.9,17.1,30.10,NW,307,5.0,10.0,85,0.00,,SKC,0.00,VWS V14.01,2013-02-12 05:45:00,
2013-02-11 23:50:00,21.0,17.2,30.10,NW,308,2.0,10.0,85,0.00,,SKC,0.00,VWS V14.01,2013-02-12 05:50:00,
2013-02-11 23:55:00,21.0,17.2,30.11,West,264,4.0,10.0,85,0.00,,SKC,0.00,VWS V14.01,2013-02-12 05:55:00,